Iver Prosperity — V7LP8 — position and weather

sailwx.info

Track history (hours):
 
Tides and Currents Weather Stations Pressure Air Temp Water Temp Dewpoint Dewpoint Depression Visibility Wind Speed Wind Dir Waves Ship Positions

Iver Prosperity

Last reported at 2018-Aug-14 00:27 UTC. Time now 2018-Aug-16 08:44 UTC.
Position N 42°50' W 069°56'.

Length 184 m; draft 7.4 m.

Type: Ship (hazmat cat A). MMSI: 538002784.

Date/timePositionNaut miles runAvg speedWind from/ knotsBaromVisibWave heightAir tempDewpointWater temp
2018-Aug-14 00:27N 42°50' W 069°56'511.8
2018-Aug-14 00:00N 42°48' W 070°02'611.5
2018-Aug-13 23:30N 42°45' W 070°09'611.5
2018-Aug-13 23:00N 42°42' W 070°16'611.5
2018-Aug-13 22:30N 42°39' W 070°22'611.5
2018-Aug-13 22:00N 42°35' W 070°28'611.1
2018-Aug-13 21:30N 42°32' W 070°35'510.9
2018-Aug-13 21:00N 42°29' W 070°41'611.2
2018-Aug-13 20:30N 42°26' W 070°47'611.1
2018-Aug-13 20:00N 42°23' W 070°53'4 8.4
2018-Aug-13 19:30N 42°20' W 070°57'4 7.5
2018-Aug-13 19:00N 42°21' W 071°02'2 3.6
2018-Aug-13 18:30N 42°23' W 071°02'1 2.0
2018-Aug-13 18:00N 42°24' W 071°01'0 0.0
2018-Aug-13 17:28N 42°24' W 071°01'0 0.0
2018-Aug-13 16:58N 42°24' W 071°01'0 0.0
2018-Aug-13 16:28N 42°24' W 071°01'0 0.0
2018-Aug-13 15:58N 42°24' W 071°01'0 0.0
2018-Aug-13 15:28N 42°24' W 071°01'0 0.0
2018-Aug-13 14:58N 42°24' W 071°01'0 0.0
2018-Aug-13 14:28N 42°24' W 071°01'0 0.0
2018-Aug-13 13:59N 42°24' W 071°01'0 0.0
2018-Aug-13 13:28N 42°24' W 071°01'0 0.0
2018-Aug-13 12:58N 42°24' W 071°01'0 0.0
2018-Aug-13 12:28N 42°24' W 071°01'0 0.0
2018-Aug-13 11:58N 42°24' W 071°01'0 0.0
2018-Aug-13 11:28N 42°24' W 071°01'0 0.0
2018-Aug-13 10:59N 42°24' W 071°01'0 0.0
2018-Aug-13 10:28N 42°24' W 071°01'0 0.0
2018-Aug-13 09:58N 42°24' W 071°01'0 0.0
2018-Aug-13 09:29N 42°24' W 071°01'0 0.0
2018-Aug-13 08:55N 42°24' W 071°01'0 0.0
2018-Aug-13 08:28N 42°24' W 071°01'0 0.0
2018-Aug-13 07:58N 42°24' W 071°01'0 0.0
2018-Aug-13 07:29N 42°24' W 071°01'0 0.0
2018-Aug-13 06:58N 42°24' W 071°01'0 0.0
2018-Aug-13 06:28N 42°24' W 071°01'0 0.0
2018-Aug-13 05:59N 42°24' W 071°01'0 0.0
2018-Aug-13 05:29N 42°24' W 071°01'0 0.0
2018-Aug-13 04:59N 42°24' W 071°01'0 0.0
2018-Aug-13 04:29N 42°24' W 071°01'0 0.0
2018-Aug-13 03:58N 42°24' W 071°01'0 0.0
2018-Aug-13 03:29N 42°24' W 071°01'0 0.0
2018-Aug-13 02:58N 42°24' W 071°01'0 0.0
2018-Aug-13 02:28N 42°24' W 071°01'0 0.0
2018-Aug-13 01:58N 42°24' W 071°01'0 0.0
2018-Aug-13 01:22N 42°24' W 071°01'0 0.0
2018-Aug-13 00:58N 42°24' W 071°01'0 0.0
2018-Aug-13 00:28N 42°24' W 071°01'0 0.0
2018-Aug-12 23:58N 42°24' W 071°01'0 0.0
2018-Aug-12 23:28N 42°24' W 071°01'0 0.0
2018-Aug-12 22:59N 42°24' W 071°01'0 0.0
2018-Aug-12 22:28N 42°24' W 071°01'0 0.0
2018-Aug-12 21:58N 42°24' W 071°01'0 0.0
2018-Aug-12 21:29N 42°24' W 071°01'0 0.0
2018-Aug-12 20:59N 42°24' W 071°01'0 0.0
2018-Aug-12 20:29N 42°24' W 071°01'0 0.0
2018-Aug-12 19:58N 42°24' W 071°01'0 0.0
2018-Aug-12 19:29N 42°24' W 071°01'0 0.0
2018-Aug-12 18:58N 42°24' W 071°01'0 0.0
2018-Aug-12 18:28N 42°24' W 071°01'0 0.0
2018-Aug-12 17:58N 42°24' W 071°01'0 0.0
2018-Aug-12 17:28N 42°24' W 071°01'0 0.0
2018-Aug-12 16:58N 42°24' W 071°01'0 0.1
2018-Aug-12 16:30N 42°24' W 071°01'1 2.3
2018-Aug-12 16:00N 42°23' W 071°02'1 1.3
2018-Aug-12 15:30N 42°23' W 071°03'0 0.2
2018-Aug-12 15:00N 42°23' W 071°03'0 0.1
2018-Aug-12 14:30N 42°23' W 071°03'2 3.3
2018-Aug-12 14:00N 42°21' W 071°02'3 5.0
2018-Aug-12 13:30N 42°20' W 070°59'1 1.3
2018-Aug-12 12:58N 42°20' W 070°58'0 0.1
2018-Aug-12 12:31N 42°20' W 070°58'0 0.1
2018-Aug-12 11:57N 42°20' W 070°58'0 0.1
2018-Aug-12 11:30N 42°20' W 070°58'0 0.2
2018-Aug-12 10:57N 42°20' W 070°58'0 0.2
2018-Aug-12 10:27N 42°20' W 070°58'0 0.1
2018-Aug-12 09:57N 42°20' W 070°58'0 0.0
2018-Aug-12 09:30N 42°20' W 070°58'0 0.0
2018-Aug-12 08:57N 42°20' W 070°58'0 0.0
2018-Aug-12 08:30N 42°20' W 070°58'0 0.0
2018-Aug-12 08:00N 42°20' W 070°58'0 0.0
2018-Aug-12 07:30N 42°20' W 070°58'0 0.0
2018-Aug-12 07:00N 42°20' W 070°58'0 0.0
2018-Aug-12 06:21N 42°20' W 070°58'0 0.0
2018-Aug-12 06:00N 42°20' W 070°58'0 0.0
2018-Aug-12 05:30N 42°20' W 070°58'0 0.1
2018-Aug-12 05:00N 42°20' W 070°58'0 0.2
2018-Aug-12 04:27N 42°20' W 070°58'0 0.1
2018-Aug-12 03:54N 42°20' W 070°58'0 0.1
2018-Aug-12 03:30N 42°20' W 070°58'0 0.0
2018-Aug-12 02:54N 42°20' W 070°58'0 0.0
2018-Aug-12 02:27N 42°20' W 070°58'0 0.0
2018-Aug-12 02:00N 42°20' W 070°58'0 0.0
2018-Aug-12 01:24N 42°20' W 070°58'0 0.0
2018-Aug-12 01:00N 42°20' W 070°58'0 0.0
2018-Aug-12 00:27N 42°20' W 070°58'0 0.1
2018-Aug-12 00:00N 42°20' W 070°58'0 0.1
2018-Aug-11 23:30N 42°20' W 070°58'0 0.0
2018-Aug-11 22:54N 42°20' W 070°58'0 0.0
2018-Aug-11 22:27N 42°20' W 070°58'0 0.2
2018-Aug-11 22:00N 42°20' W 070°58'0 0.2
2018-Aug-11 21:27N 42°20' W 070°58'0 0.0
2018-Aug-11 21:00N 42°20' W 070°58'0 0.0
2018-Aug-11 20:30N 42°20' W 070°58'0 0.0
2018-Aug-11 20:00N 42°20' W 070°58'0 0.0
2018-Aug-11 19:30N 42°20' W 070°58'0 0.0
2018-Aug-11 19:00N 42°20' W 070°58'0 0.0
2018-Aug-11 18:30N 42°20' W 070°58'0 0.1
2018-Aug-11 18:00N 42°20' W 070°58'0 0.0
2018-Aug-11 17:30N 42°20' W 070°58'0 0.0
2018-Aug-11 16:57N 42°20' W 070°58'0 0.1
2018-Aug-11 16:24N 42°20' W 070°58'0 0.2
2018-Aug-11 16:00N 42°20' W 070°58'0 0.1
2018-Aug-11 15:30N 42°20' W 070°58'0 0.1
2018-Aug-11 15:00N 42°20' W 070°58'0 0.0
2018-Aug-11 14:27N 42°20' W 070°58'0 0.0
2018-Aug-11 14:00N 42°20' W 070°58'0 0.0
2018-Aug-11 13:30N 42°20' W 070°58'0 0.0
2018-Aug-11 13:00N 42°20' W 070°58'0 0.0
2018-Aug-11 12:27N 42°20' W 070°58'0 0.1
2018-Aug-11 12:00N 42°20' W 070°58'0 0.1
2018-Aug-11 11:30N 42°20' W 070°58'1 1.7
2018-Aug-11 11:00N 42°20' W 070°57'4 7.2
2018-Aug-11 10:30N 42°23' W 070°54'510.7
2018-Aug-11 10:00N 42°26' W 070°48'3 6.2
2018-Aug-11 09:31N 42°28' W 070°44'4 8.7
2018-Aug-11 09:00N 42°30' W 070°39'713.5
2018-Aug-11 08:30N 42°34' W 070°32'714.0
2018-Aug-11 08:00N 42°38' W 070°24'714.3
2018-Aug-11 07:30N 42°42' W 070°16'714.5
2018-Aug-11 07:00N 42°46' W 070°08'714.5
2018-Aug-11 06:30N 42°50' W 069°59'714.3
2018-Aug-11 06:00N 42°54' W 069°51'814.4
2018-Aug-11 05:29N 42°58' W 069°43'814.4
2018-Aug-11 04:55N 43°02' W 069°33'  
2018-Aug-08 19:59N 43°01' W 069°29'1014.3
2018-Aug-08 19:16N 42°56' W 069°41'414.3
2018-Aug-08 19:00N 42°54' W 069°46'714.3
2018-Aug-08 18:30N 42°51' W 069°54'714.1
2018-Aug-08 18:00N 42°47' W 070°03'714.0
2018-Aug-08 17:31N 42°44' W 070°11'714.0
2018-Aug-08 17:00N 42°40' W 070°19'714.2
2018-Aug-08 16:31N 42°36' W 070°27'714.0
2018-Aug-08 16:01N 42°32' W 070°35'713.9
2018-Aug-08 15:30N 42°29' W 070°43'713.9
2018-Aug-08 15:00N 42°25' W 070°51'612.5
2018-Aug-08 14:30N 42°20' W 070°57'5 9.7
2018-Aug-08 14:00N 42°22' W 071°03'2 3.2
2018-Aug-08 13:30N 42°23' W 071°01'1 1.5
2018-Aug-08 13:00N 42°24' W 071°01'0 0.0
2018-Aug-08 12:27N 42°24' W 071°01'0 0.0
2018-Aug-08 12:00N 42°24' W 071°01'0 0.0
2018-Aug-08 11:30N 42°24' W 071°01'0 0.0
2018-Aug-08 11:00N 42°24' W 071°01'0 0.0
2018-Aug-08 10:30N 42°24' W 071°01'0 0.0
2018-Aug-08 10:00N 42°24' W 071°01'0 0.0
2018-Aug-08 09:30N 42°24' W 071°01'0 0.0
2018-Aug-08 08:57N 42°24' W 071°01'0 0.0
2018-Aug-08 08:30N 42°24' W 071°01'0 0.0
2018-Aug-08 08:00N 42°24' W 071°01'0 0.0
2018-Aug-08 07:28N 42°24' W 071°01'0 0.0
2018-Aug-08 07:00N 42°24' W 071°01'0 0.0
2018-Aug-08 06:31N 42°24' W 071°01'0 0.0
2018-Aug-08 06:00N 42°24' W 071°01'0 0.0
2018-Aug-08 05:27N 42°24' W 071°01'0 0.0
2018-Aug-08 05:00N 42°24' W 071°01'0 0.0
2018-Aug-08 04:30N 42°24' W 071°01'0 0.0
2018-Aug-08 04:00N 42°24' W 071°01'0 0.0
2018-Aug-08 03:30N 42°24' W 071°01'0 0.0
2018-Aug-08 03:00N 42°24' W 071°01'0 0.0
2018-Aug-08 02:31N 42°24' W 071°01'0 0.0
2018-Aug-08 02:00N 42°24' W 071°01'0 0.0
2018-Aug-08 01:27N 42°24' W 071°01'0 0.0
2018-Aug-08 01:00N 42°24' W 071°01'0 0.0
2018-Aug-08 00:30N 42°24' W 071°01'0 0.0
2018-Aug-08 00:00N 42°24' W 071°01'0 0.0
2018-Aug-07 23:30N 42°24' W 071°01'0 0.0
2018-Aug-07 23:00N 42°24' W 071°01'0 0.0
2018-Aug-07 22:30N 42°24' W 071°01'0 0.0
2018-Aug-07 22:00N 42°24' W 071°01'0 0.0
2018-Aug-07 21:30N 42°24' W 071°01'0 0.0
2018-Aug-07 21:00N 42°24' W 071°01'0 0.0
2018-Aug-07 20:30N 42°24' W 071°01'0 0.0
2018-Aug-07 19:57N 42°24' W 071°01'0 0.0
2018-Aug-07 19:30N 42°24' W 071°01'0 0.0
2018-Aug-07 19:00N 42°24' W 071°01'0 0.0
2018-Aug-07 18:30N 42°24' W 071°01'0 0.0
2018-Aug-07 18:00N 42°24' W 071°01'0 0.0
2018-Aug-07 17:30N 42°24' W 071°01'0 0.0
2018-Aug-07 17:00N 42°24' W 071°01'0 0.0
2018-Aug-07 16:30N 42°24' W 071°01'0 0.0
2018-Aug-07 16:00N 42°24' W 071°01'0 0.0
2018-Aug-07 15:30N 42°24' W 071°01'0 0.0
2018-Aug-07 15:00N 42°24' W 071°01'0 0.0
2018-Aug-07 14:30N 42°24' W 071°01'0 0.0
2018-Aug-07 14:00N 42°24' W 071°01'0 0.0
2018-Aug-07 13:30N 42°24' W 071°01'0 0.0
2018-Aug-07 13:00N 42°24' W 071°01'0 0.0
2018-Aug-07 12:30N 42°24' W 071°01'0 0.0
2018-Aug-07 12:00N 42°24' W 071°01'0 0.0
2018-Aug-07 11:30N 42°24' W 071°01'0 0.0
2018-Aug-07 11:00N 42°24' W 071°01'0 0.0
2018-Aug-07 10:30N 42°24' W 071°01'0 0.0
2018-Aug-07 10:00N 42°24' W 071°01'1 2.0
2018-Aug-07 09:30N 42°23' W 071°02'1 2.6
2018-Aug-07 09:00N 42°22' W 071°03'2 3.9
2018-Aug-07 08:30N 42°21' W 071°01'3 6.9
2018-Aug-07 08:00N 42°21' W 070°56'5 9.4
2018-Aug-07 07:30N 42°24' W 070°52'5 9.1
2018-Aug-07 07:00N 42°27' W 070°47'510.7
2018-Aug-07 06:31N 42°29' W 070°41'713.0
2018-Aug-07 06:00N 42°33' W 070°33'612.7
2018-Aug-07 05:30N 42°37' W 070°26'612.7
2018-Aug-07 05:00N 42°40' W 070°19'612.9
2018-Aug-07 04:30N 42°44' W 070°12'713.0
2018-Aug-07 04:00N 42°47' W 070°04'613.0
2018-Aug-07 03:30N 42°51' W 069°57'612.7
2018-Aug-07 03:00N 42°54' W 069°50'3812.7
2018-Aug-07 00:01N 43°15' W 069°06'112.8
2018-Aug-06 23:57N 43°16' W 069°05'612.6
2018-Aug-06 23:30N 43°19' W 068°58'1013.0
2018-Aug-06 22:44N 43°24' W 068°47'313.1
2018-Aug-06 22:30N 43°26' W 068°43'712.7
2018-Aug-06 21:56N 43°30' W 068°35'612.9
2018-Aug-06 21:30N 43°33' W 068°29'1012.7
2018-Aug-06 20:45N 43°38' W 068°18'312.7
2018-Aug-06 20:30N 43°40' W 068°14'79 1.6
2018-Aug-04 17:58N 42°55' W 069°43'715.3
2018-Aug-04 17:30N 42°52' W 069°51'815.1
2018-Aug-04 17:00N 42°48' W 070°00'715.0
2018-Aug-04 16:30N 42°45' W 070°09'714.9
2018-Aug-04 16:01N 42°41' W 070°18'815.2
2018-Aug-04 15:30N 42°36' W 070°26'815.1
2018-Aug-04 15:00N 42°32' W 070°35'815.1
2018-Aug-04 14:30N 42°28' W 070°43'714.7
2018-Aug-04 14:00N 42°24' W 070°52'611.9
2018-Aug-04 13:30N 42°20' W 070°58'5 9.1
2018-Aug-04 13:00N 42°23' W 071°03'2 3.1
2018-Aug-04 12:30N 42°24' W 071°01'0 0.4
2018-Aug-04 11:58N 42°24' W 071°01'0 0.0
2018-Aug-04 11:28N 42°24' W 071°01'0 0.0
2018-Aug-04 10:58N 42°24' W 071°01'0 0.0
2018-Aug-04 10:28N 42°24' W 071°01'0 0.0
2018-Aug-04 09:59N 42°24' W 071°01'0 0.0
2018-Aug-04 09:28N 42°24' W 071°01'0 0.0
2018-Aug-04 08:58N 42°24' W 071°01'0 0.0
2018-Aug-04 08:28N 42°24' W 071°01'0 0.0
2018-Aug-04 07:58N 42°24' W 071°01'0 0.0
2018-Aug-04 07:28N 42°24' W 071°01'0 0.0
2018-Aug-04 06:58N 42°24' W 071°01'0 0.0
2018-Aug-04 06:28N 42°24' W 071°01'0 0.0
2018-Aug-04 05:58N 42°24' W 071°01'0 0.0
2018-Aug-04 05:30N 42°24' W 071°01'0 0.0
2018-Aug-04 04:58N 42°24' W 071°01'0 0.0
2018-Aug-04 04:30N 42°24' W 071°01'0 0.0
2018-Aug-04 03:58N 42°24' W 071°01'0 0.0
2018-Aug-04 03:24N 42°24' W 071°01'0 0.0
2018-Aug-04 03:00N 42°24' W 071°01'0 0.0
2018-Aug-04 02:26N 42°24' W 071°01'0 0.0
2018-Aug-04 01:55N 42°24' W 071°01'0 0.0
2018-Aug-04 01:28N 42°24' W 071°01'0 0.0
2018-Aug-04 00:52N 42°24' W 071°01'0 0.0
2018-Aug-04 00:28N 42°24' W 071°01'  
Track history (hours):
 
Tides and Currents Weather Stations Pressure Air Temp Water Temp Dewpoint Dewpoint Depression Visibility Wind Speed Wind Dir Waves Ship Positions

Iver Prosperity

Last reported at 2018-Aug-14 00:27 UTC. Time now 2018-Aug-16 08:44 UTC.
Position N 42°50' W 069°56'.

Length 184 m; draft 7.4 m.

Type: Ship (hazmat cat A). MMSI: 538002784.

Date/timePositionNaut miles runAvg speedWind from/ knotsBaromVisibWave heightAir tempDewpointWater temp
2018-Aug-14 00:27N 42°50' W 069°56'511.8
2018-Aug-14 00:00N 42°48' W 070°02'611.5
2018-Aug-13 23:30N 42°45' W 070°09'611.5
2018-Aug-13 23:00N 42°42' W 070°16'611.5
2018-Aug-13 22:30N 42°39' W 070°22'611.5
2018-Aug-13 22:00N 42°35' W 070°28'611.1
2018-Aug-13 21:30N 42°32' W 070°35'510.9
2018-Aug-13 21:00N 42°29' W 070°41'611.2
2018-Aug-13 20:30N 42°26' W 070°47'611.1
2018-Aug-13 20:00N 42°23' W 070°53'4 8.4
2018-Aug-13 19:30N 42°20' W 070°57'4 7.5
2018-Aug-13 19:00N 42°21' W 071°02'2 3.6
2018-Aug-13 18:30N 42°23' W 071°02'1 2.0
2018-Aug-13 18:00N 42°24' W 071°01'0 0.0
2018-Aug-13 17:28N 42°24' W 071°01'0 0.0
2018-Aug-13 16:58N 42°24' W 071°01'0 0.0
2018-Aug-13 16:28N 42°24' W 071°01'0 0.0
2018-Aug-13 15:58N 42°24' W 071°01'0 0.0
2018-Aug-13 15:28N 42°24' W 071°01'0 0.0
2018-Aug-13 14:58N 42°24' W 071°01'0 0.0
2018-Aug-13 14:28N 42°24' W 071°01'0 0.0
2018-Aug-13 13:59N 42°24' W 071°01'0 0.0
2018-Aug-13 13:28N 42°24' W 071°01'0 0.0
2018-Aug-13 12:58N 42°24' W 071°01'0 0.0
2018-Aug-13 12:28N 42°24' W 071°01'0 0.0
2018-Aug-13 11:58N 42°24' W 071°01'0 0.0
2018-Aug-13 11:28N 42°24' W 071°01'0 0.0
2018-Aug-13 10:59N 42°24' W 071°01'0 0.0
2018-Aug-13 10:28N 42°24' W 071°01'0 0.0
2018-Aug-13 09:58N 42°24' W 071°01'0 0.0
2018-Aug-13 09:29N 42°24' W 071°01'0 0.0
2018-Aug-13 08:55N 42°24' W 071°01'0 0.0
2018-Aug-13 08:28N 42°24' W 071°01'0 0.0
2018-Aug-13 07:58N 42°24' W 071°01'0 0.0
2018-Aug-13 07:29N 42°24' W 071°01'0 0.0
2018-Aug-13 06:58N 42°24' W 071°01'0 0.0
2018-Aug-13 06:28N 42°24' W 071°01'0 0.0
2018-Aug-13 05:59N 42°24' W 071°01'0 0.0
2018-Aug-13 05:29N 42°24' W 071°01'0 0.0
2018-Aug-13 04:59N 42°24' W 071°01'0 0.0
2018-Aug-13 04:29N 42°24' W 071°01'0 0.0
2018-Aug-13 03:58N 42°24' W 071°01'0 0.0
2018-Aug-13 03:29N 42°24' W 071°01'0 0.0
2018-Aug-13 02:58N 42°24' W 071°01'0 0.0
2018-Aug-13 02:28N 42°24' W 071°01'0 0.0
2018-Aug-13 01:58N 42°24' W 071°01'0 0.0
2018-Aug-13 01:22N 42°24' W 071°01'0 0.0
2018-Aug-13 00:58N 42°24' W 071°01'0 0.0
2018-Aug-13 00:28N 42°24' W 071°01'0 0.0
2018-Aug-12 23:58N 42°24' W 071°01'0 0.0
2018-Aug-12 23:28N 42°24' W 071°01'0 0.0
2018-Aug-12 22:59N 42°24' W 071°01'0 0.0
2018-Aug-12 22:28N 42°24' W 071°01'0 0.0
2018-Aug-12 21:58N 42°24' W 071°01'0 0.0
2018-Aug-12 21:29N 42°24' W 071°01'0 0.0
2018-Aug-12 20:59N 42°24' W 071°01'0 0.0
2018-Aug-12 20:29N 42°24' W 071°01'0 0.0
2018-Aug-12 19:58N 42°24' W 071°01'0 0.0
2018-Aug-12 19:29N 42°24' W 071°01'0 0.0
2018-Aug-12 18:58N 42°24' W 071°01'0 0.0
2018-Aug-12 18:28N 42°24' W 071°01'0 0.0
2018-Aug-12 17:58N 42°24' W 071°01'0 0.0
2018-Aug-12 17:28N 42°24' W 071°01'0 0.0
2018-Aug-12 16:58N 42°24' W 071°01'0 0.1
2018-Aug-12 16:30N 42°24' W 071°01'1 2.3
2018-Aug-12 16:00N 42°23' W 071°02'1 1.3
2018-Aug-12 15:30N 42°23' W 071°03'0 0.2
2018-Aug-12 15:00N 42°23' W 071°03'0 0.1
2018-Aug-12 14:30N 42°23' W 071°03'2 3.3
2018-Aug-12 14:00N 42°21' W 071°02'3 5.0
2018-Aug-12 13:30N 42°20' W 070°59'1 1.3
2018-Aug-12 12:58N 42°20' W 070°58'0 0.1
2018-Aug-12 12:31N 42°20' W 070°58'0 0.1
2018-Aug-12 11:57N 42°20' W 070°58'0 0.1
2018-Aug-12 11:30N 42°20' W 070°58'0 0.2
2018-Aug-12 10:57N 42°20' W 070°58'0 0.2
2018-Aug-12 10:27N 42°20' W 070°58'0 0.1
2018-Aug-12 09:57N 42°20' W 070°58'0 0.0
2018-Aug-12 09:30N 42°20' W 070°58'0 0.0
2018-Aug-12 08:57N 42°20' W 070°58'0 0.0
2018-Aug-12 08:30N 42°20' W 070°58'0 0.0
2018-Aug-12 08:00N 42°20' W 070°58'0 0.0
2018-Aug-12 07:30N 42°20' W 070°58'0 0.0
2018-Aug-12 07:00N 42°20' W 070°58'0 0.0
2018-Aug-12 06:21N 42°20' W 070°58'0 0.0
2018-Aug-12 06:00N 42°20' W 070°58'0 0.0
2018-Aug-12 05:30N 42°20' W 070°58'0 0.1
2018-Aug-12 05:00N 42°20' W 070°58'0 0.2
2018-Aug-12 04:27N 42°20' W 070°58'0 0.1
2018-Aug-12 03:54N 42°20' W 070°58'0 0.1
2018-Aug-12 03:30N 42°20' W 070°58'0 0.0
2018-Aug-12 02:54N 42°20' W 070°58'0 0.0
2018-Aug-12 02:27N 42°20' W 070°58'0 0.0
2018-Aug-12 02:00N 42°20' W 070°58'0 0.0
2018-Aug-12 01:24N 42°20' W 070°58'0 0.0
2018-Aug-12 01:00N 42°20' W 070°58'0 0.0
2018-Aug-12 00:27N 42°20' W 070°58'0 0.1
2018-Aug-12 00:00N 42°20' W 070°58'0 0.1
2018-Aug-11 23:30N 42°20' W 070°58'0 0.0
2018-Aug-11 22:54N 42°20' W 070°58'0 0.0
2018-Aug-11 22:27N 42°20' W 070°58'0 0.2
2018-Aug-11 22:00N 42°20' W 070°58'0 0.2
2018-Aug-11 21:27N 42°20' W 070°58'0 0.0
2018-Aug-11 21:00N 42°20' W 070°58'0 0.0
2018-Aug-11 20:30N 42°20' W 070°58'0 0.0
2018-Aug-11 20:00N 42°20' W 070°58'0 0.0
2018-Aug-11 19:30N 42°20' W 070°58'0 0.0
2018-Aug-11 19:00N 42°20' W 070°58'0 0.0
2018-Aug-11 18:30N 42°20' W 070°58'0 0.1
2018-Aug-11 18:00N 42°20' W 070°58'0 0.0
2018-Aug-11 17:30N 42°20' W 070°58'0 0.0
2018-Aug-11 16:57N 42°20' W 070°58'0 0.1
2018-Aug-11 16:24N 42°20' W 070°58'0 0.2
2018-Aug-11 16:00N 42°20' W 070°58'0 0.1
2018-Aug-11 15:30N 42°20' W 070°58'0 0.1
2018-Aug-11 15:00N 42°20' W 070°58'0 0.0
2018-Aug-11 14:27N 42°20' W 070°58'0 0.0
2018-Aug-11 14:00N 42°20' W 070°58'0 0.0
2018-Aug-11 13:30N 42°20' W 070°58'0 0.0
2018-Aug-11 13:00N 42°20' W 070°58'0 0.0
2018-Aug-11 12:27N 42°20' W 070°58'0 0.1
2018-Aug-11 12:00N 42°20' W 070°58'0 0.1
2018-Aug-11 11:30N 42°20' W 070°58'1 1.7
2018-Aug-11 11:00N 42°20' W 070°57'4 7.2
2018-Aug-11 10:30N 42°23' W 070°54'510.7
2018-Aug-11 10:00N 42°26' W 070°48'3 6.2
2018-Aug-11 09:31N 42°28' W 070°44'4 8.7
2018-Aug-11 09:00N 42°30' W 070°39'713.5
2018-Aug-11 08:30N 42°34' W 070°32'714.0
2018-Aug-11 08:00N 42°38' W 070°24'714.3
2018-Aug-11 07:30N 42°42' W 070°16'714.5
2018-Aug-11 07:00N 42°46' W 070°08'714.5
2018-Aug-11 06:30N 42°50' W 069°59'714.3
2018-Aug-11 06:00N 42°54' W 069°51'814.4
2018-Aug-11 05:29N 42°58' W 069°43'814.4
2018-Aug-11 04:55N 43°02' W 069°33'  
2018-Aug-08 19:59N 43°01' W 069°29'1014.3
2018-Aug-08 19:16N 42°56' W 069°41'414.3
2018-Aug-08 19:00N 42°54' W 069°46'714.3
2018-Aug-08 18:30N 42°51' W 069°54'714.1
2018-Aug-08 18:00N 42°47' W 070°03'714.0
2018-Aug-08 17:31N 42°44' W 070°11'714.0
2018-Aug-08 17:00N 42°40' W 070°19'714.2
2018-Aug-08 16:31N 42°36' W 070°27'714.0
2018-Aug-08 16:01N 42°32' W 070°35'713.9
2018-Aug-08 15:30N 42°29' W 070°43'713.9
2018-Aug-08 15:00N 42°25' W 070°51'612.5
2018-Aug-08 14:30N 42°20' W 070°57'5 9.7
2018-Aug-08 14:00N 42°22' W 071°03'2 3.2
2018-Aug-08 13:30N 42°23' W 071°01'1 1.5
2018-Aug-08 13:00N 42°24' W 071°01'0 0.0
2018-Aug-08 12:27N 42°24' W 071°01'0 0.0
2018-Aug-08 12:00N 42°24' W 071°01'0 0.0
2018-Aug-08 11:30N 42°24' W 071°01'0 0.0
2018-Aug-08 11:00N 42°24' W 071°01'0 0.0
2018-Aug-08 10:30N 42°24' W 071°01'0 0.0
2018-Aug-08 10:00N 42°24' W 071°01'0 0.0
2018-Aug-08 09:30N 42°24' W 071°01'0 0.0
2018-Aug-08 08:57N 42°24' W 071°01'0 0.0
2018-Aug-08 08:30N 42°24' W 071°01'0 0.0
2018-Aug-08 08:00N 42°24' W 071°01'0 0.0
2018-Aug-08 07:28N 42°24' W 071°01'0 0.0
2018-Aug-08 07:00N 42°24' W 071°01'0 0.0
2018-Aug-08 06:31N 42°24' W 071°01'0 0.0
2018-Aug-08 06:00N 42°24' W 071°01'0 0.0
2018-Aug-08 05:27N 42°24' W 071°01'0 0.0
2018-Aug-08 05:00N 42°24' W 071°01'0 0.0
2018-Aug-08 04:30N 42°24' W 071°01'0 0.0
2018-Aug-08 04:00N 42°24' W 071°01'0 0.0
2018-Aug-08 03:30N 42°24' W 071°01'0 0.0
2018-Aug-08 03:00N 42°24' W 071°01'0 0.0
2018-Aug-08 02:31N 42°24' W 071°01'0 0.0
2018-Aug-08 02:00N 42°24' W 071°01'0 0.0
2018-Aug-08 01:27N 42°24' W 071°01'0 0.0
2018-Aug-08 01:00N 42°24' W 071°01'0 0.0
2018-Aug-08 00:30N 42°24' W 071°01'0 0.0
2018-Aug-08 00:00N 42°24' W 071°01'0 0.0
2018-Aug-07 23:30N 42°24' W 071°01'0 0.0
2018-Aug-07 23:00N 42°24' W 071°01'0 0.0
2018-Aug-07 22:30N 42°24' W 071°01'0 0.0
2018-Aug-07 22:00N 42°24' W 071°01'0 0.0
2018-Aug-07 21:30N 42°24' W 071°01'0 0.0
2018-Aug-07 21:00N 42°24' W 071°01'0 0.0
2018-Aug-07 20:30N 42°24' W 071°01'0 0.0
2018-Aug-07 19:57N 42°24' W 071°01'0 0.0
2018-Aug-07 19:30N 42°24' W 071°01'0 0.0
2018-Aug-07 19:00N 42°24' W 071°01'0 0.0
2018-Aug-07 18:30N 42°24' W 071°01'0 0.0
2018-Aug-07 18:00N 42°24' W 071°01'0 0.0
2018-Aug-07 17:30N 42°24' W 071°01'0 0.0
2018-Aug-07 17:00N 42°24' W 071°01'0 0.0
2018-Aug-07 16:30N 42°24' W 071°01'0 0.0
2018-Aug-07 16:00N 42°24' W 071°01'0 0.0
2018-Aug-07 15:30N 42°24' W 071°01'0 0.0
2018-Aug-07 15:00N 42°24' W 071°01'0 0.0
2018-Aug-07 14:30N 42°24' W 071°01'0 0.0
2018-Aug-07 14:00N 42°24' W 071°01'0 0.0
2018-Aug-07 13:30N 42°24' W 071°01'0 0.0
2018-Aug-07 13:00N 42°24' W 071°01'0 0.0
2018-Aug-07 12:30N 42°24' W 071°01'0 0.0
2018-Aug-07 12:00N 42°24' W 071°01'0 0.0
2018-Aug-07 11:30N 42°24' W 071°01'0 0.0
2018-Aug-07 11:00N 42°24' W 071°01'0 0.0
2018-Aug-07 10:30N 42°24' W 071°01'0 0.0
2018-Aug-07 10:00N 42°24' W 071°01'1 2.0
2018-Aug-07 09:30N 42°23' W 071°02'1 2.6
2018-Aug-07 09:00N 42°22' W 071°03'2 3.9
2018-Aug-07 08:30N 42°21' W 071°01'3 6.9
2018-Aug-07 08:00N 42°21' W 070°56'5 9.4
2018-Aug-07 07:30N 42°24' W 070°52'5 9.1
2018-Aug-07 07:00N 42°27' W 070°47'510.7
2018-Aug-07 06:31N 42°29' W 070°41'713.0
2018-Aug-07 06:00N 42°33' W 070°33'612.7
2018-Aug-07 05:30N 42°37' W 070°26'612.7
2018-Aug-07 05:00N 42°40' W 070°19'612.9
2018-Aug-07 04:30N 42°44' W 070°12'713.0
2018-Aug-07 04:00N 42°47' W 070°04'613.0
2018-Aug-07 03:30N 42°51' W 069°57'612.7
2018-Aug-07 03:00N 42°54' W 069°50'3812.7
2018-Aug-07 00:01N 43°15' W 069°06'112.8
2018-Aug-06 23:57N 43°16' W 069°05'612.6
2018-Aug-06 23:30N 43°19' W 068°58'1013.0
2018-Aug-06 22:44N 43°24' W 068°47'313.1
2018-Aug-06 22:30N 43°26' W 068°43'712.7
2018-Aug-06 21:56N 43°30' W 068°35'612.9
2018-Aug-06 21:30N 43°33' W 068°29'1012.7
2018-Aug-06 20:45N 43°38' W 068°18'312.7
2018-Aug-06 20:30N 43°40' W 068°14'79 1.6
2018-Aug-04 17:58N 42°55' W 069°43'715.3
2018-Aug-04 17:30N 42°52' W 069°51'815.1
2018-Aug-04 17:00N 42°48' W 070°00'715.0
2018-Aug-04 16:30N 42°45' W 070°09'714.9
2018-Aug-04 16:01N 42°41' W 070°18'815.2
2018-Aug-04 15:30N 42°36' W 070°26'815.1
2018-Aug-04 15:00N 42°32' W 070°35'815.1
2018-Aug-04 14:30N 42°28' W 070°43'714.7
2018-Aug-04 14:00N 42°24' W 070°52'611.9
2018-Aug-04 13:30N 42°20' W 070°58'5 9.1
2018-Aug-04 13:00N 42°23' W 071°03'2 3.1
2018-Aug-04 12:30N 42°24' W 071°01'0 0.4
2018-Aug-04 11:58N 42°24' W 071°01'0 0.0
2018-Aug-04 11:28N 42°24' W 071°01'0 0.0
2018-Aug-04 10:58N 42°24' W 071°01'0 0.0
2018-Aug-04 10:28N 42°24' W 071°01'0 0.0
2018-Aug-04 09:59N 42°24' W 071°01'0 0.0
2018-Aug-04 09:28N 42°24' W 071°01'0 0.0
2018-Aug-04 08:58N 42°24' W 071°01'0 0.0
2018-Aug-04 08:28N 42°24' W 071°01'0 0.0
2018-Aug-04 07:58N 42°24' W 071°01'0 0.0
2018-Aug-04 07:28N 42°24' W 071°01'0 0.0
2018-Aug-04 06:58N 42°24' W 071°01'0 0.0
2018-Aug-04 06:28N 42°24' W 071°01'0 0.0
2018-Aug-04 05:58N 42°24' W 071°01'0 0.0
2018-Aug-04 05:30N 42°24' W 071°01'0 0.0
2018-Aug-04 04:58N 42°24' W 071°01'0 0.0
2018-Aug-04 04:30N 42°24' W 071°01'0 0.0
2018-Aug-04 03:58N 42°24' W 071°01'0 0.0
2018-Aug-04 03:24N 42°24' W 071°01'0 0.0
2018-Aug-04 03:00N 42°24' W 071°01'0 0.0
2018-Aug-04 02:26N 42°24' W 071°01'0 0.0
2018-Aug-04 01:55N 42°24' W 071°01'0 0.0
2018-Aug-04 01:28N 42°24' W 071°01'0 0.0
2018-Aug-04 00:52N 42°24' W 071°01'0 0.0
2018-Aug-04 00:28N 42°24' W 071°01'  

Dump ship's entire track history